Time;durP1;ratioP1;P1;durP2;ratioP2;P2;SDS_P1;SDS_P2;PMS_P1;PMS_P2;Temp;Humidity;BMP_temperature;BMP_pressure;BME280_temperature;BME280_humidity;BME280_pressure;Samples;Min_cycle;Max_cycle;Signal;HPM_P1;HPM_P2
2022/07/30 00:00:20;;;;;;;3.90;1.40;;;;;;;;;;10494151;28;20611;-81
2022/07/30 00:05:21;;;;;;;2.97;1.52;;;;;;;;;;10486676;28;20206;-83
2022/07/30 00:10:23;;;;;;;2.25;1.42;;;;;;;;;;10487497;28;20312;-81
2022/07/30 00:15:24;;;;;;;5.97;1.35;;;;;;;;;;10489402;28;20227;-82
2022/07/30 00:20:25;;;;;;;2.10;1.60;;;;;;;;;;10488792;28;20224;-82
2022/07/30 00:25:26;;;;;;;3.35;1.92;;;;;;;;;;10484497;28;20608;-83
2022/07/30 00:30:27;;;;;;;2.65;2.03;;;;;;;;;;10486539;28;20258;-83
2022/07/30 00:35:28;;;;;;;5.57;2.15;;;;;;;;;;10481931;28;20726;-83
2022/07/30 00:40:29;;;;;;;2.10;2.00;;;;;;;;;;10467162;28;20686;-83
2022/07/30 00:45:30;;;;;;;3.83;2.58;;;;;;;;;;10462114;28;20210;-81
2022/07/30 00:50:31;;;;;;;3.30;3.10;;;;;;;;;;10490256;28;20722;-81
2022/07/30 00:55:33;;;;;;;3.65;2.63;;;;;;;;;;10489124;28;21098;-83
2022/07/30 01:00:34;;;;;;;3.10;2.85;;;;;;;;;;10475750;28;20705;-83
2022/07/30 01:05:35;;;;;;;3.15;3.05;;;;;;;;;;10477193;28;20251;-83
2022/07/30 01:10:36;;;;;;;3.55;3.40;;;;;;;;;;10474665;28;20210;-87
2022/07/30 01:15:37;;;;;;;3.15;3.05;;;;;;;;;;10484047;28;20217;-81
2022/07/30 01:20:48;;;;;;;3.88;3.60;;;;;;;;;;10465577;28;20600;-81
2022/07/30 01:25:58;;;;;;;3.40;3.10;;;;;;;;;;10459085;28;20208;-79
2022/07/30 01:31:00;;;;;;;3.58;3.30;;;;;;;;;;10492751;28;20223;-80
2022/07/30 01:36:01;;;;;;;4.10;3.75;;;;;;;;;;10468895;28;20195;-81
2022/07/30 01:41:04;;;;;;;10.45;3.95;;;;;;;;;;10472631;28;20301;-81
2022/07/30 01:46:06;;;;;;;3.72;3.42;;;;;;;;;;10466069;28;20670;-82
2022/07/30 01:51:09;;;;;;;3.80;3.60;;;;;;;;;;10465850;28;21820;-81
2022/07/30 01:56:13;;;;;;;3.30;3.08;;;;;;;;;;10461550;28;20178;-81
2022/07/30 02:01:14;;;;;;;3.35;3.10;;;;;;;;;;10474975;28;20699;-82
2022/07/30 02:06:26;;;;;;;3.53;3.00;;;;;;;;;;10457963;28;20202;-81
2022/07/30 02:16:50;;;;;;;7.35;3.17;;;;;;;;;;10491960;28;20218;-82
2022/07/30 02:21:58;;;;;;;7.68;2.95;;;;;;;;;;10478349;28;20275;-81
2022/07/30 02:27:02;;;;;;;5.68;2.90;;;;;;;;;;10485498;28;20190;-80
2022/07/30 02:32:08;;;;;;;5.25;3.13;;;;;;;;;;10485110;28;20576;-80
2022/07/30 02:37:11;;;;;;;7.22;3.55;;;;;;;;;;10479607;28;20171;-80
2022/07/30 02:42:14;;;;;;;7.65;3.35;;;;;;;;;;10474306;28;20314;-79
2022/07/30 02:47:16;;;;;;;3.67;3.38;;;;;;;;;;10478072;28;20233;-80
2022/07/30 02:52:28;;;;;;;4.60;3.42;;;;;;;;;;10485132;28;20271;-80
2022/07/30 02:57:31;;;;;;;4.13;3.83;;;;;;;;;;10459372;28;20182;-83
2022/07/30 03:02:33;;;;;;;4.97;4.57;;;;;;;;;;10454264;28;20226;-81
2022/07/30 03:07:35;;;;;;;8.13;4.75;;;;;;;;;;10477096;28;20193;-81
2022/07/30 03:12:37;;;;;;;7.75;4.82;;;;;;;;;;10470455;28;20217;-80
2022/07/30 03:17:42;;;;;;;7.97;4.70;;;;;;;;;;10462307;28;20206;-77
2022/07/30 03:22:45;;;;;;;7.60;4.80;;;;;;;;;;10474085;28;20216;-76
2022/07/30 03:27:47;;;;;;;5.50;5.00;;;;;;;;;;10467387;28;20187;-75
2022/07/30 03:32:48;;;;;;;7.25;6.18;;;;;;;;;;10467579;28;20226;-74
2022/07/30 03:37:50;;;;;;;8.45;6.55;;;;;;;;;;10462758;28;20190;-76
2022/07/30 03:42:52;;;;;;;6.13;5.68;;;;;;;;;;10473746;28;20248;-77
2022/07/30 03:47:56;;;;;;;9.77;6.50;;;;;;;;;;10471539;28;20225;-77
2022/07/30 03:52:58;;;;;;;10.13;6.88;;;;;;;;;;10470270;28;20210;-76
2022/07/30 03:58:02;;;;;;;10.05;7.80;;;;;;;;;;10487035;28;20608;-78
2022/07/30 04:03:06;;;;;;;12.43;7.60;;;;;;;;;;10475185;28;20222;-79
2022/07/30 04:08:21;;;;;;;6.68;6.15;;;;;;;;;;10473011;28;20190;-77
2022/07/30 04:13:22;;;;;;;10.68;6.72;;;;;;;;;;10471047;28;20209;-78
2022/07/30 04:18:26;;;;;;;7.93;7.32;;;;;;;;;;10463612;28;20213;-79
2022/07/30 04:23:27;;;;;;;8.38;7.60;;;;;;;;;;10486073;28;20217;-80
2022/07/30 04:28:29;;;;;;;8.35;7.55;;;;;;;;;;10469410;28;20177;-79
2022/07/30 04:33:30;;;;;;;7.70;7.13;;;;;;;;;;10493233;28;20241;-79
2022/07/30 04:38:50;;;;;;;8.68;7.40;;;;;;;;;;10492413;28;20187;-78
2022/07/30 04:43:51;;;;;;;8.88;7.13;;;;;;;;;;10465661;28;20726;-77
2022/07/30 04:48:53;;;;;;;7.80;7.20;;;;;;;;;;10467691;28;20194;-79
2022/07/30 04:53:55;;;;;;;6.93;6.43;;;;;;;;;;10449117;28;20774;-79
2022/07/30 04:58:56;;;;;;;8.55;7.75;;;;;;;;;;10487708;28;20355;-78
2022/07/30 05:03:59;;;;;;;7.93;6.95;;;;;;;;;;10475468;28;20214;-78
2022/07/30 05:09:01;;;;;;;7.43;6.93;;;;;;;;;;10463125;28;20257;-77
2022/07/30 05:14:02;;;;;;;6.55;6.15;;;;;;;;;;10476623;28;20466;-78
2022/07/30 05:19:03;;;;;;;7.50;6.93;;;;;;;;;;10489263;28;20602;-77
2022/07/30 05:24:05;;;;;;;10.70;7.25;;;;;;;;;;10465832;28;20218;-78
2022/07/30 05:29:10;;;;;;;8.00;7.20;;;;;;;;;;10459288;28;20170;-78
2022/07/30 05:34:21;;;;;;;8.38;7.45;;;;;;;;;;10425022;28;20245;-78
2022/07/30 05:39:23;;;;;;;9.73;7.60;;;;;;;;;;10430523;28;20565;-78
2022/07/30 05:44:27;;;;;;;8.80;8.00;;;;;;;;;;10423661;28;20276;-78
2022/07/30 05:49:29;;;;;;;8.27;7.50;;;;;;;;;;10408503;28;20203;-79
2022/07/30 05:54:39;;;;;;;8.60;7.80;;;;;;;;;;10426748;28;20202;-80
2022/07/30 05:59:58;;;;;;;10.73;7.63;;;;;;;;;;10437974;28;20191;-81
2022/07/30 06:05:17;;;;;;;11.02;8.93;;;;;;;;;;10479829;28;20214;-79
2022/07/30 06:10:19;;;;;;;9.05;7.65;;;;;;;;;;10473687;28;20319;-80
2022/07/30 06:15:21;;;;;;;8.75;7.75;;;;;;;;;;10476498;28;20178;-80
2022/07/30 06:20:23;;;;;;;8.40;7.70;;;;;;;;;;10464110;28;20201;-80
2022/07/30 06:25:48;;;;;;;6.82;6.22;;;;;;;;;;10472890;28;20205;-79
2022/07/30 06:30:50;;;;;;;6.68;6.22;;;;;;;;;;10470045;28;20221;-79
2022/07/30 06:35:52;;;;;;;6.65;6.07;;;;;;;;;;10509304;28;20210;-79
2022/07/30 06:40:57;;;;;;;6.47;6.03;;;;;;;;;;10505613;28;20220;-80
2022/07/30 06:46:18;;;;;;;6.63;6.35;;;;;;;;;;10527241;28;20209;-80
2022/07/30 06:51:23;;;;;;;5.70;5.25;;;;;;;;;;10511920;28;20208;-80
2022/07/30 06:56:24;;;;;;;5.22;4.82;;;;;;;;;;10513271;28;20174;-79
2022/07/30 07:01:29;;;;;;;5.95;5.65;;;;;;;;;;10515375;28;20209;-75
2022/07/30 07:06:31;;;;;;;5.72;5.32;;;;;;;;;;10508288;28;20208;-76
2022/07/30 07:11:33;;;;;;;5.45;5.15;;;;;;;;;;10521292;28;20840;-77
2022/07/30 07:16:39;;;;;;;17.73;12.73;;;;;;;;;;10526923;28;20207;-76
2022/07/30 07:21:58;;;;;;;6.70;6.13;;;;;;;;;;10541309;28;20209;-75
2022/07/30 07:27:00;;;;;;;7.80;5.63;;;;;;;;;;10498789;28;20200;-75
2022/07/30 07:32:02;;;;;;;7.47;6.82;;;;;;;;;;10498796;28;20231;-74
2022/07/30 07:37:04;;;;;;;7.72;7.10;;;;;;;;;;10516786;28;20219;-74
2022/07/30 07:42:05;;;;;;;7.47;6.97;;;;;;;;;;10504367;28;20214;-75
2022/07/30 07:47:06;;;;;;;8.00;7.30;;;;;;;;;;10529862;28;20212;-74
2022/07/30 07:52:12;;;;;;;7.53;6.93;;;;;;;;;;10514730;28;20206;-74
2022/07/30 07:57:13;;;;;;;7.95;6.43;;;;;;;;;;10506960;28;20200;-75
2022/07/30 08:02:16;;;;;;;6.40;5.75;;;;;;;;;;10507681;28;20204;-74
2022/07/30 08:07:26;;;;;;;6.82;6.25;;;;;;;;;;10517042;28;20264;-73
2022/07/30 08:12:47;;;;;;;5.22;4.82;;;;;;;;;;10525205;28;20221;-73
2022/07/30 08:18:07;;;;;;;4.93;4.63;;;;;;;;;;10525469;28;20201;-75
2022/07/30 08:23:29;;;;;;;4.70;4.43;;;;;;;;;;10526059;28;20224;-73
2022/07/30 08:28:30;;;;;;;5.05;4.85;;;;;;;;;;10499151;28;20221;-74
2022/07/30 08:33:31;;;;;;;4.95;4.60;;;;;;;;;;10503188;28;20770;-74
2022/07/30 08:38:33;;;;;;;5.80;4.38;;;;;;;;;;10513638;28;20290;-73
2022/07/30 08:43:34;;;;;;;6.30;4.85;;;;;;;;;;10526789;28;20308;-74
2022/07/30 08:48:36;;;;;;;4.90;4.55;;;;;;;;;;10530428;28;20194;-75
2022/07/30 08:53:37;;;;;;;5.28;4.50;;;;;;;;;;10524124;28;20319;-74
2022/07/30 08:58:39;;;;;;;5.65;5.38;;;;;;;;;;10529496;28;20171;-75
2022/07/30 09:03:40;;;;;;;5.53;5.25;;;;;;;;;;10528878;28;20219;-75
2022/07/30 09:08:42;;;;;;;4.80;4.60;;;;;;;;;;10534685;28;20577;-75
2022/07/30 09:13:43;;;;;;;5.72;3.65;;;;;;;;;;10508654;28;20201;-75
2022/07/30 09:18:47;;;;;;;5.03;4.82;;;;;;;;;;10506187;28;20201;-75
2022/07/30 09:24:10;;;;;;;6.28;5.78;;;;;;;;;;10530470;28;20217;-75
2022/07/30 09:29:40;;;;;;;5.53;5.18;;;;;;;;;;10519897;28;20181;-75
2022/07/30 09:35:12;;;;;;;5.15;4.85;;;;;;;;;;10530345;28;20315;-74
2022/07/30 09:40:36;;;;;;;4.93;4.60;;;;;;;;;;10529571;28;20300;-73
2022/07/30 09:46:17;;;;;;;4.68;4.38;;;;;;;;;;10506906;28;20212;-74
2022/07/30 09:51:18;;;;;;;4.95;4.20;;;;;;;;;;10506177;28;20206;-74
2022/07/30 09:56:23;;;;;;;4.35;4.15;;;;;;;;;;10504363;28;20184;-74
2022/07/30 10:01:27;;;;;;;5.03;4.82;;;;;;;;;;10503990;28;20278;-75
2022/07/30 10:06:46;;;;;;;4.30;4.05;;;;;;;;;;10537019;28;20216;-74
2022/07/30 10:11:58;;;;;;;5.32;3.75;;;;;;;;;;10486644;28;20204;-74
2022/07/30 10:17:00;;;;;;;4.20;3.83;;;;;;;;;;10500951;28;20182;-75
2022/07/30 10:22:01;;;;;;;4.60;4.40;;;;;;;;;;10511953;28;20295;-74
2022/07/30 10:27:23;;;;;;;3.53;3.33;;;;;;;;;;10534109;28;20186;-75
2022/07/30 10:32:51;;;;;;;3.75;3.45;;;;;;;;;;10510727;28;20247;-74
2022/07/30 10:37:54;;;;;;;3.67;3.38;;;;;;;;;;10531568;28;20178;-74
2022/07/30 10:43:14;;;;;;;4.18;3.88;;;;;;;;;;10535482;28;20217;-74
2022/07/30 10:48:15;;;;;;;4.25;4.00;;;;;;;;;;10507900;28;20221;-74
2022/07/30 10:53:33;;;;;;;3.40;3.30;;;;;;;;;;10525197;28;20217;-74
2022/07/30 10:58:54;;;;;;;3.38;3.10;;;;;;;;;;10539614;28;20224;-74
2022/07/30 11:04:14;;;;;;;3.58;3.45;;;;;;;;;;10534714;28;20259;-74
2022/07/30 11:09:34;;;;;;;4.10;3.80;;;;;;;;;;10531083;28;20264;-74
2022/07/30 11:14:47;;;;;;;6.18;3.30;;;;;;;;;;10516054;28;20239;-74
2022/07/30 11:20:05;;;;;;;3.15;3.05;;;;;;;;;;10524070;28;20669;-74
2022/07/30 11:25:11;;;;;;;3.97;3.30;;;;;;;;;;10533015;28;20208;-74
2022/07/30 11:30:16;;;;;;;3.33;3.10;;;;;;;;;;10524761;28;20190;-73
2022/07/30 11:35:24;;;;;;;4.28;2.85;;;;;;;;;;10495635;28;20241;-75
2022/07/30 11:40:26;;;;;;;4.88;2.70;;;;;;;;;;10463544;28;20190;-76
2022/07/30 11:45:28;;;;;;;3.08;2.15;;;;;;;;;;10462784;28;20734;-76
2022/07/30 11:50:33;;;;;;;2.58;2.38;;;;;;;;;;10492015;28;25283;-73
2022/07/30 11:55:36;;;;;;;2.88;2.67;;;;;;;;;;10465207;28;20211;-70
2022/07/30 12:00:46;;;;;;;3.88;3.60;;;;;;;;;;10456927;28;20394;-74
2022/07/30 12:05:48;;;;;;;3.15;3.05;;;;;;;;;;10461374;28;20231;-72
2022/07/30 12:10:59;;;;;;;2.97;2.78;;;;;;;;;;10484794;28;20257;-73
2022/07/30 12:16:00;;;;;;;3.10;2.90;;;;;;;;;;10475263;28;20564;-73
2022/07/30 12:21:03;;;;;;;2.90;2.42;;;;;;;;;;10464568;28;20236;-74
2022/07/30 12:26:04;;;;;;;2.17;2.15;;;;;;;;;;10490437;28;20243;-73
2022/07/30 12:31:05;;;;;;;2.28;2.17;;;;;;;;;;10449400;28;20297;-75
2022/07/30 12:36:07;;;;;;;2.72;2.38;;;;;;;;;;10504468;28;20190;-74
2022/07/30 12:41:08;;;;;;;2.85;2.58;;;;;;;;;;10531854;28;20312;-71
2022/07/30 12:46:09;;;;;;;2.50;2.30;;;;;;;;;;10512022;28;20588;-72
2022/07/30 12:51:10;;;;;;;3.83;2.20;;;;;;;;;;10530255;28;20214;-74
2022/07/30 12:56:15;;;;;;;2.10;1.90;;;;;;;;;;10490829;28;20169;-74
2022/07/30 13:01:17;;;;;;;2.70;2.47;;;;;;;;;;10529523;28;20233;-72
2022/07/30 13:06:19;;;;;;;3.83;3.53;;;;;;;;;;10535874;28;20212;-73
2022/07/30 13:11:25;;;;;;;2.05;1.60;;;;;;;;;;10530729;28;20208;-74
2022/07/30 13:16:30;;;;;;;2.30;2.20;;;;;;;;;;10531661;28;20199;-73
2022/07/30 13:21:32;;;;;;;2.90;2.80;;;;;;;;;;10525185;28;20231;-72
2022/07/30 13:26:36;;;;;;;1.77;1.63;;;;;;;;;;10491645;28;20304;-72
2022/07/30 13:31:37;;;;;;;1.50;1.50;;;;;;;;;;10513997;28;20248;-74
2022/07/30 13:36:38;;;;;;;2.10;1.77;;;;;;;;;;10526593;28;20194;-72
2022/07/30 13:41:40;;;;;;;1.63;1.60;;;;;;;;;;10501757;28;20798;-73
2022/07/30 13:46:41;;;;;;;1.95;1.55;;;;;;;;;;10520140;28;20231;-74
2022/07/30 13:51:42;;;;;;;2.72;1.80;;;;;;;;;;10521542;28;20213;-73
2022/07/30 13:56:43;;;;;;;1.90;1.80;;;;;;;;;;10523232;28;20260;-74
2022/07/30 14:01:45;;;;;;;1.67;1.60;;;;;;;;;;10527888;28;20217;-74
2022/07/30 14:06:46;;;;;;;1.65;1.55;;;;;;;;;;10530341;28;20220;-74
2022/07/30 14:11:47;;;;;;;1.40;1.40;;;;;;;;;;10528854;28;20209;-73
2022/07/30 14:16:49;;;;;;;1.50;1.30;;;;;;;;;;10533495;28;20181;-75
2022/07/30 14:21:51;;;;;;;1.63;1.52;;;;;;;;;;10529226;28;20676;-73
2022/07/30 14:26:52;;;;;;;1.88;1.60;;;;;;;;;;10534856;28;20217;-74
2022/07/30 14:31:54;;;;;;;1.33;1.33;;;;;;;;;;10507646;28;20654;-75
2022/07/30 14:36:55;;;;;;;1.30;1.30;;;;;;;;;;10537300;28;20182;-74
2022/07/30 14:41:56;;;;;;;1.70;1.50;;;;;;;;;;10532942;28;20209;-74
2022/07/30 14:46:57;;;;;;;1.30;1.30;;;;;;;;;;10504524;28;20231;-75
2022/07/30 14:51:59;;;;;;;2.22;1.27;;;;;;;;;;10528897;28;20205;-75
2022/07/30 14:57:00;;;;;;;1.33;1.27;;;;;;;;;;10506734;28;20267;-74
2022/07/30 15:02:02;;;;;;;1.30;1.30;;;;;;;;;;10529122;28;20225;-74
2022/07/30 15:07:03;;;;;;;1.60;1.60;;;;;;;;;;10535439;28;20286;-75
2022/07/30 15:12:05;;;;;;;1.70;1.70;;;;;;;;;;10521971;28;20201;-74
2022/07/30 15:17:06;;;;;;;1.95;1.85;;;;;;;;;;10532555;28;20235;-74
2022/07/30 15:22:07;;;;;;;1.63;1.52;;;;;;;;;;10540537;28;20213;-77
2022/07/30 15:27:08;;;;;;;1.90;1.80;;;;;;;;;;10539267;28;20212;-75
2022/07/30 15:32:10;;;;;;;10.32;1.98;;;;;;;;;;10538140;28;20213;-75
2022/07/30 15:37:11;;;;;;;1.33;1.33;;;;;;;;;;10533937;28;20178;-77
2022/07/30 15:42:12;;;;;;;2.05;1.92;;;;;;;;;;10522344;28;20217;-75
2022/07/30 15:47:13;;;;;;;9.73;9.07;;;;;;;;;;10533267;28;20217;-76
2022/07/30 15:52:16;;;;;;;68.22;60.88;;;;;;;;;;10539289;28;20211;-77
2022/07/30 15:57:17;;;;;;;2.60;2.60;;;;;;;;;;10537061;28;20267;-76
2022/07/30 16:02:18;;;;;;;2.42;2.33;;;;;;;;;;10517444;28;20668;-76
2022/07/30 16:07:20;;;;;;;2.05;1.70;;;;;;;;;;10531258;28;20258;-76
2022/07/30 16:12:21;;;;;;;2.35;1.50;;;;;;;;;;10536807;28;20284;-74
2022/07/30 16:17:22;;;;;;;1.65;1.55;;;;;;;;;;10507854;28;20687;-75
2022/07/30 16:22:23;;;;;;;2.08;2.08;;;;;;;;;;10537949;28;20220;-77
2022/07/30 16:27:24;;;;;;;1.38;1.38;;;;;;;;;;10532380;28;20214;-76
2022/07/30 16:32:25;;;;;;;1.55;1.42;;;;;;;;;;10528822;28;20233;-78
2022/07/30 16:37:26;;;;;;;1.17;1.17;;;;;;;;;;10535848;28;20185;-75
2022/07/30 16:42:27;;;;;;;1.05;1.05;;;;;;;;;;10531592;28;20623;-74
2022/07/30 16:47:28;;;;;;;1.30;1.25;;;;;;;;;;10528029;28;20208;-74
2022/07/30 16:52:29;;;;;;;1.17;1.17;;;;;;;;;;10526105;28;20295;-76
2022/07/30 16:57:30;;;;;;;2.40;1.38;;;;;;;;;;10529633;28;20557;-75
2022/07/30 17:02:32;;;;;;;1.35;1.13;;;;;;;;;;10533053;28;20209;-75
2022/07/30 17:07:33;;;;;;;2.03;2.03;;;;;;;;;;10505389;28;20201;-76
2022/07/30 17:12:34;;;;;;;1.15;1.15;;;;;;;;;;10487068;28;20241;-76
2022/07/30 17:17:35;;;;;;;1.45;1.35;;;;;;;;;;10501257;28;20208;-74
2022/07/30 17:22:36;;;;;;;2.38;1.33;;;;;;;;;;10529981;28;20212;-76
2022/07/30 17:27:37;;;;;;;2.50;1.65;;;;;;;;;;10503046;28;20741;-76
2022/07/30 17:32:38;;;;;;;1.23;1.23;;;;;;;;;;10504700;28;20218;-76
2022/07/30 17:37:39;;;;;;;1.40;1.40;;;;;;;;;;10503617;28;20201;-76
2022/07/30 17:42:44;;;;;;;2.25;1.85;;;;;;;;;;10503996;28;20277;-76
2022/07/30 17:47:45;;;;;;;1.40;1.40;;;;;;;;;;10507736;28;20193;-76
2022/07/30 17:52:46;;;;;;;1.73;1.63;;;;;;;;;;10540931;28;20216;-76
2022/07/30 17:57:47;;;;;;;2.35;1.67;;;;;;;;;;10531075;28;20186;-74
2022/07/30 18:02:48;;;;;;;1.70;1.65;;;;;;;;;;10536691;28;20349;-76
2022/07/30 18:07:49;;;;;;;1.55;1.50;;;;;;;;;;10535820;28;20170;-76
2022/07/30 18:12:50;;;;;;;1.60;1.48;;;;;;;;;;10529228;28;20214;-77
2022/07/30 18:17:51;;;;;;;1.30;1.30;;;;;;;;;;10527483;28;20201;-78
2022/07/30 18:22:52;;;;;;;2.47;1.63;;;;;;;;;;10527355;28;20220;-78
2022/07/30 18:27:54;;;;;;;1.67;1.60;;;;;;;;;;10525734;28;20193;-76
2022/07/30 18:32:55;;;;;;;1.80;1.80;;;;;;;;;;10531720;28;20275;-77
2022/07/30 18:37:56;;;;;;;1.67;1.52;;;;;;;;;;10513674;28;20181;-77
2022/07/30 18:42:58;;;;;;;1.58;1.42;;;;;;;;;;10534939;28;20265;-77
2022/07/30 18:47:59;;;;;;;1.52;1.52;;;;;;;;;;10528640;28;20196;-77
2022/07/30 18:53:00;;;;;;;1.58;1.48;;;;;;;;;;10544991;28;20244;-76
2022/07/30 18:58:01;;;;;;;1.77;1.77;;;;;;;;;;10544261;28;20177;-78
2022/07/30 19:03:02;;;;;;;2.63;1.45;;;;;;;;;;10535425;28;20599;-78
2022/07/30 19:08:04;;;;;;;2.30;2.25;;;;;;;;;;10544706;28;20193;-79
2022/07/30 19:13:05;;;;;;;1.60;1.60;;;;;;;;;;10521836;28;20213;-79
2022/07/30 19:18:06;;;;;;;1.80;1.70;;;;;;;;;;10537578;28;20258;-79
2022/07/30 19:23:07;;;;;;;2.25;1.73;;;;;;;;;;10542613;28;20224;-78
2022/07/30 19:28:10;;;;;;;2.28;2.15;;;;;;;;;;10515881;28;20224;-80
2022/07/30 19:33:12;;;;;;;1.73;1.70;;;;;;;;;;10540154;28;20230;-80
2022/07/30 19:38:13;;;;;;;1.65;1.65;;;;;;;;;;10506244;28;20239;-81
2022/07/30 19:43:14;;;;;;;1.55;1.55;;;;;;;;;;10535893;28;20335;-81
2022/07/30 19:48:15;;;;;;;1.88;1.75;;;;;;;;;;10541058;28;20201;-80
2022/07/30 19:53:17;;;;;;;1.40;1.40;;;;;;;;;;10522907;28;20288;-80
2022/07/30 19:58:18;;;;;;;1.70;1.60;;;;;;;;;;10531725;28;20190;-77
2022/07/30 20:03:19;;;;;;;1.70;1.70;;;;;;;;;;10553167;28;20217;-80
2022/07/30 20:08:20;;;;;;;1.38;1.38;;;;;;;;;;10509844;28;20265;-80
2022/07/30 20:13:21;;;;;;;2.28;1.67;;;;;;;;;;10526783;28;20251;-80
2022/07/30 20:18:24;;;;;;;1.65;1.65;;;;;;;;;;10530009;28;20240;-80
2022/07/30 20:23:25;;;;;;;2.13;2.08;;;;;;;;;;10518822;28;20209;-80
2022/07/30 20:28:26;;;;;;;1.88;1.75;;;;;;;;;;10533788;28;20200;-81
2022/07/30 20:33:28;;;;;;;2.47;2.05;;;;;;;;;;10541378;28;20229;-80
2022/07/30 20:38:29;;;;;;;1.73;1.73;;;;;;;;;;10542811;28;20540;-81
2022/07/30 20:43:30;;;;;;;5.53;2.55;;;;;;;;;;10511099;28;20217;-80
2022/07/30 20:48:34;;;;;;;3.13;2.80;;;;;;;;;;10535768;28;20285;-81
2022/07/30 20:53:35;;;;;;;2.40;2.28;;;;;;;;;;10511440;28;20202;-82
2022/07/30 20:58:36;;;;;;;2.08;2.08;;;;;;;;;;10534435;28;20182;-81
2022/07/30 21:03:37;;;;;;;2.67;2.53;;;;;;;;;;10537891;28;20601;-80
2022/07/30 21:08:38;;;;;;;2.78;2.50;;;;;;;;;;10525370;28;20182;-81
2022/07/30 21:13:39;;;;;;;2.60;2.22;;;;;;;;;;10501983;28;20201;-82
2022/07/30 21:18:40;;;;;;;2.92;2.72;;;;;;;;;;10527031;28;20193;-81
2022/07/30 21:23:41;;;;;;;3.00;2.88;;;;;;;;;;10507656;28;20563;-81
2022/07/30 21:28:42;;;;;;;2.58;2.50;;;;;;;;;;10521646;28;20824;-82
2022/07/30 21:33:43;;;;;;;3.03;2.83;;;;;;;;;;10542352;28;20225;-81
2022/07/30 21:38:44;;;;;;;3.20;3.10;;;;;;;;;;10522056;28;20177;-81
2022/07/30 21:43:45;;;;;;;4.70;4.40;;;;;;;;;;10535723;28;20229;-81
2022/07/30 21:48:46;;;;;;;4.75;4.50;;;;;;;;;;10532657;28;20702;-81
2022/07/30 21:53:47;;;;;;;4.25;4.05;;;;;;;;;;10516961;28;20209;-81
2022/07/30 21:58:48;;;;;;;4.15;4.05;;;;;;;;;;10533753;28;20177;-81
2022/07/30 22:03:56;;;;;;;4.20;4.00;;;;;;;;;;10526030;28;20712;-81
2022/07/30 22:08:57;;;;;;;4.55;4.38;;;;;;;;;;10526403;28;20170;-82
2022/07/30 22:13:58;;;;;;;4.20;4.10;;;;;;;;;;10508808;28;20243;-82
2022/07/30 22:18:59;;;;;;;3.75;3.65;;;;;;;;;;10485972;28;20196;-82
2022/07/30 22:24:00;;;;;;;4.70;4.45;;;;;;;;;;10530017;28;20220;-81
2022/07/30 22:29:01;;;;;;;4.20;4.10;;;;;;;;;;10540670;28;20181;-81
2022/07/30 22:34:02;;;;;;;4.65;4.43;;;;;;;;;;10515243;28;20619;-81
2022/07/30 22:39:03;;;;;;;4.70;4.50;;;;;;;;;;10528316;28;20277;-81
2022/07/30 22:44:04;;;;;;;4.40;4.20;;;;;;;;;;10533168;28;20225;-81
2022/07/30 22:49:05;;;;;;;4.13;3.85;;;;;;;;;;10533538;28;20224;-81
2022/07/30 22:54:06;;;;;;;4.30;4.10;;;;;;;;;;10531723;28;20212;-80
2022/07/30 22:59:08;;;;;;;4.25;4.05;;;;;;;;;;10522449;28;20169;-81
2022/07/30 23:04:09;;;;;;;4.47;4.22;;;;;;;;;;10534596;28;20209;-81
2022/07/30 23:09:10;;;;;;;4.90;4.80;;;;;;;;;;10539191;28;20216;-81
2022/07/30 23:14:12;;;;;;;4.88;4.72;;;;;;;;;;10528220;28;20245;-82
2022/07/30 23:19:13;;;;;;;4.53;4.38;;;;;;;;;;10541907;28;20262;-82
2022/07/30 23:24:14;;;;;;;4.70;4.32;;;;;;;;;;10518024;28;20217;-81
2022/07/30 23:29:15;;;;;;;4.18;4.07;;;;;;;;;;10541577;28;20181;-81
2022/07/30 23:34:16;;;;;;;5.38;5.18;;;;;;;;;;10514984;28;20225;-82
2022/07/30 23:39:18;;;;;;;4.90;4.70;;;;;;;;;;10527519;28;20672;-81
2022/07/30 23:44:20;;;;;;;4.35;4.05;;;;;;;;;;10531173;28;20263;-81
2022/07/30 23:49:23;;;;;;;4.93;4.82;;;;;;;;;;10511481;28;20190;-80
2022/07/30 23:54:24;;;;;;;4.82;4.72;;;;;;;;;;10532759;28;20601;-80
2022/07/30 23:59:25;;;;;;;5.95;5.55;;;;;;;;;;10524885;28;20211;-79
